Anglian Lady — VOLP — position and weather

sailwx.info

Track history (hours):
 
Tides and Currents Weather Stations Pressure Air Temp Water Temp Dewpoint Dewpoint Depression Visibility Wind Speed Wind Dir Waves Ship Positions

Anglian Lady

Last reported at 2016-Jan-21 22:33 UTC. Time now 2016-Feb-05 22:17 UTC.
Position N 45°54' W 084°08'.
Warning: this ship's position is 14 days out of date.

Length 32 m.

Type: Tug. MMSI: 316002238.

Date/timePositionNaut miles runAvg speedWind from/ knotsBaromVisibWave heightAir tempDewpointWater temp
2016-Jan-21 22:33N 45°54' W 084°08'9 8.7
2016-Jan-21 21:33N 45°52' W 084°20'9 8.6
2016-Jan-21 20:33N 45°51' W 084°33'8 8.3
2016-Jan-21 19:34N 45°49' W 084°44'7 6.8
2016-Jan-21 18:34N 45°49' W 084°54'7 6.6
2016-Jan-21 17:34N 45°50' W 085°03'6 5.7
2016-Jan-21 16:34N 45°45' W 085°09'7 7.5
2016-Jan-21 15:34N 45°39' W 085°15'9 9.0
2016-Jan-21 14:34N 45°32' W 085°23'9 9.1
2016-Jan-21 13:34N 45°25' W 085°31'9 9.1
2016-Jan-21 12:34N 45°17' W 085°38'9 9.1
2016-Jan-21 11:34N 45°10' W 085°46'  
2016-Jan-17 11:26N 45°54' W 085°56'5 5.4
2016-Jan-17 10:34N 45°54' W 085°49'5 5.4
2016-Jan-17 09:34N 45°54' W 085°42'5 5.2
2016-Jan-17 08:32N 45°53' W 085°34'5 5.3
2016-Jan-17 07:33N 45°53' W 085°27'7 5.2
2016-Jan-17 06:14N 45°52' W 085°17'4 5.3
2016-Jan-17 05:34N 45°52' W 085°12'3 3.4
2016-Jan-17 04:34N 45°51' W 085°07'7 6.8
2016-Jan-17 03:33N 45°50' W 084°57'7 6.7
2016-Jan-17 02:33N 45°49' W 084°48'6 6.0
2016-Jan-17 01:34N 45°50' W 084°39'10 6.9
2016-Jan-17 00:05N 45°52' W 084°25'  
2016-Jan-13 09:33N 45°52' W 084°13'9 9.1
2016-Jan-13 08:33N 45°51' W 084°26'9 9.2
2016-Jan-13 07:34N 45°50' W 084°39'10 9.8
2016-Jan-13 06:34N 45°50' W 084°53'9 8.7
2016-Jan-13 05:34N 45°51' W 085°05'9 9.0
2016-Jan-13 04:34N 45°52' W 085°18'9 9.0
2016-Jan-13 03:33N 45°53' W 085°31'9 9.2
2016-Jan-13 02:34N 45°52' W 085°44'9 8.8
2016-Jan-13 01:34N 45°51' W 085°57'  
Track history (hours):
 
Tides and Currents Weather Stations Pressure Air Temp Water Temp Dewpoint Dewpoint Depression Visibility Wind Speed Wind Dir Waves Ship Positions

Anglian Lady

Last reported at 2016-Jan-21 22:33 UTC. Time now 2016-Feb-05 22:17 UTC.
Position N 45°54' W 084°08'.
Warning: this ship's position is 14 days out of date.

Length 32 m.

Type: Tug. MMSI: 316002238.

Date/timePositionNaut miles runAvg speedWind from/ knotsBaromVisibWave heightAir tempDewpointWater temp
2016-Jan-21 22:33N 45°54' W 084°08'9 8.7
2016-Jan-21 21:33N 45°52' W 084°20'9 8.6
2016-Jan-21 20:33N 45°51' W 084°33'8 8.3
2016-Jan-21 19:34N 45°49' W 084°44'7 6.8
2016-Jan-21 18:34N 45°49' W 084°54'7 6.6
2016-Jan-21 17:34N 45°50' W 085°03'6 5.7
2016-Jan-21 16:34N 45°45' W 085°09'7 7.5
2016-Jan-21 15:34N 45°39' W 085°15'9 9.0
2016-Jan-21 14:34N 45°32' W 085°23'9 9.1
2016-Jan-21 13:34N 45°25' W 085°31'9 9.1
2016-Jan-21 12:34N 45°17' W 085°38'9 9.1
2016-Jan-21 11:34N 45°10' W 085°46'  
2016-Jan-17 11:26N 45°54' W 085°56'5 5.4
2016-Jan-17 10:34N 45°54' W 085°49'5 5.4
2016-Jan-17 09:34N 45°54' W 085°42'5 5.2
2016-Jan-17 08:32N 45°53' W 085°34'5 5.3
2016-Jan-17 07:33N 45°53' W 085°27'7 5.2
2016-Jan-17 06:14N 45°52' W 085°17'4 5.3
2016-Jan-17 05:34N 45°52' W 085°12'3 3.4
2016-Jan-17 04:34N 45°51' W 085°07'7 6.8
2016-Jan-17 03:33N 45°50' W 084°57'7 6.7
2016-Jan-17 02:33N 45°49' W 084°48'6 6.0
2016-Jan-17 01:34N 45°50' W 084°39'10 6.9
2016-Jan-17 00:05N 45°52' W 084°25'  
2016-Jan-13 09:33N 45°52' W 084°13'9 9.1
2016-Jan-13 08:33N 45°51' W 084°26'9 9.2
2016-Jan-13 07:34N 45°50' W 084°39'10 9.8
2016-Jan-13 06:34N 45°50' W 084°53'9 8.7
2016-Jan-13 05:34N 45°51' W 085°05'9 9.0
2016-Jan-13 04:34N 45°52' W 085°18'9 9.0
2016-Jan-13 03:33N 45°53' W 085°31'9 9.2
2016-Jan-13 02:34N 45°52' W 085°44'9 8.8
2016-Jan-13 01:34N 45°51' W 085°57'  

Dump ship's entire track history